CJQ3 weather

Carlyle Airport
Carlyle, Saskatchewan, Canada

Public forecast

Using degrees Celsius for public forecast. Weather courtesy of forecast.io.

METAR (pilot weather report)

Closest report is Estevan Airport, 37.2 nm (68.9 km) SW. Retrieved 2019/04/22 23:00 UTC (35 minutes ago):

CYEN 222300Z AUTO 18003KT 140V210 9SM CLR 17/M06 A3015 RMK SLP229 DENSITY ALT 2200FT

TAF (pilot weather forecast)

Closest forecast is Estevan Airport, 37.2 nm (68.9 km) SW. Retrieved 2019/04/22 18:00 UTC (6 hours ago):

TAF CYEN 221738Z 2218/2224 VRB03KT P6SM SKC BECMG 2219/2221 05008KT BECMG 2222/2224 09008KT RMK FCST BASED ON AUTO OBS. NXT FCST WILL BE ISSUED AT 231145Z